Terminal Aerodrome Forecast
Issued by NWS

Home | Current Version | Previous Version | Text Only | Print | Product List | Glossary On
Versions: 1 2 3 4 5 6 7 8 9 10 11 12 13 14 15 16
000
FTUS42 KTAE 231120
TAFABY
TAF
KABY 231120Z 2312/2412 00000KT P6SM BKN003
      TEMPO 2312/2314 5SM BR SCT003
     FM231400 24004KT P6SM SCT035
     FM231800 20007KT 6SM -TSRA BKN050CB
     FM240200 21005KT P6SM BKN250=

USA.gov is the U.S. government's official web portal to all federal, state and local government web resources and services.